createdAt,value
2017-12-16T00:00:54.041Z,2.90
2017-12-16T00:03:21.533Z,3.10
2017-12-16T00:05:49.041Z,3.00
2017-12-16T00:08:16.538Z,3.10
2017-12-16T00:10:44.043Z,3.10
2017-12-16T00:13:12.369Z,3.10
2017-12-16T00:15:39.981Z,3.10
2017-12-16T00:18:07.517Z,3.10
2017-12-16T00:20:35.029Z,3.10
2017-12-16T00:23:03.293Z,3.10
2017-12-16T00:25:30.810Z,3.10
2017-12-16T00:27:58.345Z,3.20
2017-12-16T00:30:25.897Z,3.20
2017-12-16T00:32:53.457Z,3.10
2017-12-16T00:35:21.424Z,3.20
2017-12-16T00:37:48.988Z,3.30
2017-12-16T00:40:16.546Z,3.30
2017-12-16T00:42:44.072Z,3.30
2017-12-16T00:45:11.668Z,3.30
2017-12-16T00:47:39.165Z,3.30
2017-12-16T00:50:06.709Z,3.40
2017-12-16T00:52:34.245Z,3.30
2017-12-16T00:55:02.256Z,3.40
2017-12-16T00:57:29.770Z,3.40
2017-12-16T00:59:57.330Z,3.50
2017-12-16T01:02:24.841Z,3.40
2017-12-16T01:04:53.168Z,3.40
2017-12-16T01:07:20.681Z,3.50
2017-12-16T01:09:49.014Z,3.40
2017-12-16T01:12:16.520Z,3.40
2017-12-16T01:14:44.417Z,3.30
2017-12-16T01:17:12.000Z,3.30
2017-12-16T01:19:40.273Z,3.20
2017-12-16T01:22:07.792Z,3.20
2017-12-16T01:24:36.061Z,3.20
2017-12-16T01:27:04.325Z,3.30
2017-12-16T01:29:31.832Z,3.30
2017-12-16T01:31:59.328Z,3.30
2017-12-16T01:34:32.607Z,3.30
2017-12-16T01:37:06.100Z,3.30
2017-12-16T01:39:33.652Z,3.30
2017-12-16T01:42:02.036Z,3.40
2017-12-16T01:44:29.605Z,3.40
2017-12-16T01:46:57.156Z,3.40
2017-12-16T01:49:24.760Z,3.40
2017-12-16T01:51:53.017Z,3.40
2017-12-16T01:54:20.529Z,3.30
2017-12-16T01:56:48.150Z,3.20
2017-12-16T01:59:16.800Z,3.20
2017-12-16T02:01:44.365Z,3.20
2017-12-16T02:04:11.925Z,3.20
2017-12-16T02:06:40.189Z,3.20
2017-12-16T02:09:08.832Z,3.30
2017-12-16T02:11:37.104Z,3.30
2017-12-16T02:14:05.433Z,3.30
2017-12-16T02:16:32.992Z,3.30
2017-12-16T02:19:00.501Z,3.30
2017-12-16T02:21:28.827Z,3.40
2017-12-16T02:23:56.356Z,3.40
2017-12-16T02:26:23.945Z,3.40
2017-12-16T02:28:51.916Z,3.50
2017-12-16T02:31:19.434Z,3.50
2017-12-16T02:33:47.700Z,3.40
2017-12-16T02:36:15.972Z,3.40
2017-12-16T02:38:44.264Z,3.30
2017-12-16T02:41:12.160Z,3.30
2017-12-16T02:43:39.658Z,3.50
2017-12-16T02:46:07.940Z,3.50
2017-12-16T02:48:36.940Z,3.30
2017-12-16T02:51:04.872Z,3.30
2017-12-16T02:53:33.249Z,3.30
2017-12-16T02:56:00.877Z,3.20
2017-12-16T02:58:28.915Z,3.20
2017-12-16T03:00:57.409Z,3.20
2017-12-16T03:03:25.809Z,3.30
2017-12-16T03:05:54.065Z,3.20
2017-12-16T03:08:22.060Z,3.10
2017-12-16T03:10:50.172Z,3.10
2017-12-16T03:13:18.072Z,3.00
2017-12-16T03:15:46.442Z,3.00
2017-12-16T03:18:14.794Z,3.00
2017-12-16T03:20:42.685Z,3.00
2017-12-16T03:23:10.604Z,3.00
2017-12-16T03:25:38.658Z,2.90
2017-12-16T03:28:07.053Z,2.90
2017-12-16T03:30:35.093Z,2.90
2017-12-16T03:33:03.012Z,3.00
2017-12-16T03:35:31.404Z,3.00
2017-12-16T03:37:59.420Z,2.90
2017-12-16T03:40:27.452Z,3.00
2017-12-16T03:42:54.983Z,2.90
2017-12-16T03:45:23.916Z,2.90
2017-12-16T03:47:51.958Z,2.90
2017-12-16T03:50:20.022Z,2.90
2017-12-16T03:52:47.536Z,2.90
2017-12-16T03:55:15.461Z,2.80
2017-12-16T03:57:42.948Z,2.80
2017-12-16T04:00:11.301Z,2.80
2017-12-16T04:02:38.796Z,2.80
2017-12-16T04:05:07.133Z,2.70
2017-12-16T04:07:34.692Z,2.70
2017-12-16T04:10:02.189Z,2.70
2017-12-16T04:12:29.704Z,2.80
2017-12-16T04:14:57.263Z,2.90
2017-12-16T04:17:24.756Z,2.90
2017-12-16T04:19:52.261Z,2.70
2017-12-16T04:22:19.773Z,2.60
2017-12-16T04:24:47.269Z,2.50
2017-12-16T04:27:14.755Z,2.50
2017-12-16T04:29:42.266Z,2.50
2017-12-16T04:32:10.545Z,2.40
2017-12-16T04:34:38.808Z,2.40
2017-12-16T04:37:06.333Z,2.40
2017-12-16T04:39:33.840Z,2.40
2017-12-16T04:42:02.170Z,2.40
2017-12-16T04:44:29.661Z,2.50
2017-12-16T04:46:57.176Z,2.50
2017-12-16T04:49:24.678Z,2.40
2017-12-16T04:51:52.958Z,2.50
2017-12-16T04:54:21.693Z,2.50
2017-12-16T04:56:49.304Z,2.50
2017-12-16T04:59:17.584Z,2.60
2017-12-16T05:01:45.878Z,2.60
2017-12-16T05:04:13.409Z,2.60
2017-12-16T05:06:40.924Z,2.60
2017-12-16T05:09:08.420Z,2.50
2017-12-16T05:11:35.957Z,2.60
2017-12-16T05:14:03.470Z,2.60
2017-12-16T05:16:31.076Z,2.60
2017-12-16T05:18:58.604Z,2.60
2017-12-16T05:21:26.138Z,2.60
2017-12-16T05:23:54.431Z,2.70
2017-12-16T05:26:22.704Z,2.70
2017-12-16T05:28:50.324Z,2.60
2017-12-16T05:31:17.868Z,2.70
2017-12-16T05:33:45.369Z,2.70
2017-12-16T05:36:12.884Z,2.70
2017-12-16T05:38:40.857Z,2.60
2017-12-16T05:41:08.433Z,2.60
2017-12-16T05:43:36.692Z,2.60
2017-12-16T05:46:04.748Z,2.60
2017-12-16T05:48:32.429Z,2.60
2017-12-16T05:50:59.921Z,2.60
2017-12-16T05:53:27.421Z,2.60
2017-12-16T05:55:55.700Z,2.60
2017-12-16T05:58:24.098Z,2.60
2017-12-16T06:00:51.592Z,2.60
2017-12-16T06:03:19.221Z,2.50
2017-12-16T06:05:46.780Z,2.60
2017-12-16T06:08:14.386Z,2.60
2017-12-16T06:10:42.612Z,2.60
2017-12-16T06:13:10.569Z,2.60
2017-12-16T06:15:38.233Z,2.60
2017-12-16T06:18:05.833Z,2.50
2017-12-16T06:20:33.326Z,2.60
2017-12-16T06:23:01.600Z,2.70
2017-12-16T06:25:29.856Z,2.70
2017-12-16T06:27:57.384Z,2.70
2017-12-16T06:30:24.944Z,2.70
2017-12-16T06:32:52.457Z,2.70
2017-12-16T06:35:20.733Z,2.80
2017-12-16T06:37:48.329Z,2.80
2017-12-16T06:40:15.872Z,2.80
2017-12-16T06:42:43.389Z,2.90
2017-12-16T06:45:11.728Z,2.90
2017-12-16T06:47:39.297Z,3.00
2017-12-16T06:50:07.255Z,3.00
2017-12-16T06:52:34.773Z,2.90
2017-12-16T06:55:03.049Z,3.00
2017-12-16T06:57:30.576Z,4.10
2017-12-16T06:59:58.221Z,3.10
2017-12-16T07:02:27.244Z,3.20
2017-12-16T07:04:55.585Z,3.20
2017-12-16T07:07:23.136Z,3.10
2017-12-16T07:09:50.713Z,2.90
2017-12-16T07:12:18.209Z,2.90
2017-12-16T07:14:46.570Z,2.90
2017-12-16T07:17:14.073Z,2.90
2017-12-16T07:19:41.568Z,3.00
2017-12-16T07:22:09.063Z,2.90
2017-12-16T07:24:37.353Z,3.00
2017-12-16T07:27:05.616Z,3.00
2017-12-16T07:29:33.916Z,3.10
2017-12-16T07:32:02.206Z,3.10
2017-12-16T07:34:29.722Z,3.10
2017-12-16T07:36:58.123Z,3.10
2017-12-16T07:39:26.384Z,3.10
2017-12-16T07:41:54.660Z,3.10
2017-12-16T07:44:22.961Z,3.20
2017-12-16T07:46:50.553Z,3.20
2017-12-16T07:49:18.079Z,3.20
2017-12-16T07:51:45.598Z,3.20
2017-12-16T07:54:13.117Z,3.20
2017-12-16T07:56:40.645Z,3.30
2017-12-16T07:59:08.176Z,3.20
2017-12-16T08:01:36.480Z,3.30
2017-12-16T08:04:04.408Z,3.30
2017-12-16T08:06:31.941Z,3.30
2017-12-16T08:09:00.220Z,3.30
2017-12-16T08:11:28.204Z,3.40
2017-12-16T08:13:55.765Z,3.40
2017-12-16T08:16:23.369Z,3.40
2017-12-16T08:18:50.880Z,3.50
2017-12-16T08:21:18.411Z,3.60
2017-12-16T08:23:47.064Z,3.50
2017-12-16T08:26:15.361Z,3.60
2017-12-16T08:28:42.888Z,3.60
2017-12-16T08:31:11.221Z,3.70
2017-12-16T08:33:39.635Z,3.70
2017-12-16T08:36:07.157Z,3.70
2017-12-16T08:38:35.820Z,3.70
2017-12-16T08:41:03.729Z,3.70
2017-12-16T08:43:32.025Z,3.70
2017-12-16T08:46:01.072Z,3.80
2017-12-16T08:48:28.589Z,3.80
2017-12-16T08:50:56.501Z,3.80
2017-12-16T08:53:24.797Z,3.80
2017-12-16T08:55:53.068Z,3.80
2017-12-16T08:58:21.366Z,3.80
2017-12-16T09:00:49.284Z,3.80
2017-12-16T09:03:16.792Z,3.80
2017-12-16T09:05:44.339Z,3.80
2017-12-16T09:08:12.240Z,3.90
2017-12-16T09:10:40.172Z,3.90
2017-12-16T09:13:08.480Z,3.90
2017-12-16T09:15:37.500Z,3.90
2017-12-16T09:18:05.972Z,4.00
2017-12-16T09:20:33.898Z,3.90
2017-12-16T09:23:01.416Z,3.90
2017-12-16T09:25:29.395Z,3.90
2017-12-16T09:27:57.676Z,3.90
2017-12-16T09:30:25.201Z,3.90
2017-12-16T09:32:53.511Z,3.90
2017-12-16T09:35:21.833Z,3.90
2017-12-16T09:37:49.401Z,4.00
2017-12-16T09:40:17.317Z,4.00
2017-12-16T09:42:45.592Z,4.10
2017-12-16T09:45:13.525Z,4.10
2017-12-16T09:47:41.052Z,4.00
2017-12-16T09:50:08.969Z,4.00
2017-12-16T09:52:37.260Z,4.00
2017-12-16T09:55:04.971Z,4.00
2017-12-16T09:57:33.237Z,4.00
2017-12-16T10:00:00.758Z,4.10
2017-12-16T10:02:28.336Z,4.20
2017-12-16T10:04:55.858Z,4.30
2017-12-16T10:07:24.209Z,4.30
2017-12-16T10:09:51.769Z,4.20
2017-12-16T10:12:19.289Z,4.20
2017-12-16T10:14:46.942Z,4.20
2017-12-16T10:17:14.453Z,4.20
2017-12-16T10:19:42.006Z,4.20
2017-12-16T10:22:09.564Z,4.20
2017-12-16T10:24:37.072Z,4.20
2017-12-16T10:27:04.684Z,4.20
2017-12-16T10:29:32.204Z,4.30
2017-12-16T10:31:59.711Z,4.30
2017-12-16T10:34:27.673Z,4.40
2017-12-16T10:36:55.233Z,4.30
2017-12-16T10:39:23.256Z,4.30
2017-12-16T10:41:50.774Z,4.30
2017-12-16T10:44:18.317Z,4.40
2017-12-16T10:46:45.832Z,4.50
2017-12-16T10:49:13.351Z,4.50
2017-12-16T10:51:40.897Z,4.50
2017-12-16T10:54:08.458Z,4.50
2017-12-16T10:56:35.979Z,4.60
2017-12-16T10:59:03.493Z,4.80
2017-12-16T11:01:31.027Z,5.10
2017-12-16T11:03:59.001Z,5.50
2017-12-16T11:06:27.304Z,5.60
2017-12-16T11:08:55.660Z,6.10
2017-12-16T11:11:23.181Z,6.10
2017-12-16T11:13:50.780Z,8.20
2017-12-16T11:16:18.340Z,9.60
2017-12-16T11:18:45.900Z,10.90
2017-12-16T11:21:13.417Z,12.20
2017-12-16T11:23:41.021Z,12.50
2017-12-16T11:26:08.576Z,12.20
2017-12-16T11:28:36.136Z,10.50
2017-12-16T11:31:04.113Z,9.10
2017-12-16T11:33:32.016Z,8.10
2017-12-16T11:36:00.353Z,7.70
2017-12-16T11:38:27.864Z,8.00
2017-12-16T11:40:55.376Z,8.10
2017-12-16T11:43:22.928Z,12.30
2017-12-16T11:45:50.492Z,12.20
2017-12-16T11:48:18.024Z,11.40
2017-12-16T11:50:45.608Z,10.70
2017-12-16T11:53:13.125Z,9.70
2017-12-16T11:55:41.033Z,8.50
2017-12-16T11:58:09.328Z,8.00
2017-12-16T12:00:36.873Z,7.60
2017-12-16T12:03:04.380Z,7.30
2017-12-16T12:05:31.900Z,6.80
2017-12-16T12:07:59.411Z,6.70
2017-12-16T12:10:27.013Z,6.50
2017-12-16T12:12:54.485Z,6.40
2017-12-16T12:15:21.992Z,6.10
2017-12-16T12:17:49.923Z,6.00
2017-12-16T12:20:18.195Z,5.90
2017-12-16T12:22:46.109Z,5.80
2017-12-16T12:25:13.652Z,5.80
2017-12-16T12:27:41.169Z,5.80
2017-12-16T12:30:08.687Z,5.80
2017-12-16T12:32:37.045Z,5.80
2017-12-16T12:35:04.551Z,5.80
2017-12-16T12:37:32.086Z,5.80
2017-12-16T12:39:59.679Z,6.00
2017-12-16T12:42:27.193Z,6.30
2017-12-16T12:44:54.720Z,6.40
2017-12-16T12:47:23.073Z,6.60
2017-12-16T12:49:50.625Z,6.70
2017-12-16T12:52:18.194Z,6.70
2017-12-16T12:54:45.748Z,6.80
2017-12-16T12:57:13.259Z,6.60
2017-12-16T12:59:41.173Z,6.40
2017-12-16T13:02:08.700Z,6.20
2017-12-16T13:04:36.296Z,6.20
2017-12-16T13:07:03.857Z,6.10
2017-12-16T13:09:31.760Z,5.90
2017-12-16T13:11:59.792Z,6.00
2017-12-16T13:14:27.308Z,5.90
2017-12-16T13:16:54.848Z,5.90
2017-12-16T13:19:22.760Z,5.80
2017-12-16T13:21:50.351Z,5.80
2017-12-16T13:24:17.905Z,5.60
2017-12-16T13:26:45.417Z,5.60
2017-12-16T13:29:12.940Z,5.60
2017-12-16T13:31:40.580Z,5.50
2017-12-16T13:34:08.148Z,5.50
2017-12-16T13:36:35.704Z,5.40
2017-12-16T13:39:03.277Z,5.30
2017-12-16T13:41:30.760Z,5.20
2017-12-16T13:43:59.044Z,5.10
2017-12-16T13:46:26.578Z,5.20
2017-12-16T13:48:54.116Z,5.20
2017-12-16T13:51:21.676Z,5.30
2017-12-16T13:53:49.220Z,5.30
2017-12-16T13:56:16.792Z,5.50
2017-12-16T13:58:44.352Z,5.40
2017-12-16T14:01:11.913Z,5.40
2017-12-16T14:03:39.469Z,5.30
2017-12-16T14:06:06.996Z,5.30
2017-12-16T14:08:34.592Z,5.10
2017-12-16T14:11:02.120Z,5.00
2017-12-16T14:13:29.636Z,4.90
2017-12-16T14:15:57.165Z,4.90
2017-12-16T14:18:25.185Z,4.90
2017-12-16T14:20:52.805Z,4.80
2017-12-16T14:23:20.344Z,4.80
2017-12-16T14:25:48.332Z,4.70
2017-12-16T14:28:16.269Z,4.70
2017-12-16T14:30:43.862Z,4.70
2017-12-16T14:33:11.416Z,4.60
2017-12-16T14:35:38.948Z,4.50
2017-12-16T14:38:06.545Z,4.50
2017-12-16T14:40:34.075Z,4.40
2017-12-16T14:43:01.669Z,4.30
2017-12-16T14:45:29.224Z,4.40
2017-12-16T14:47:56.737Z,4.40
2017-12-16T14:50:24.341Z,4.40
2017-12-16T14:52:51.896Z,4.40
2017-12-16T14:55:19.460Z,4.50
2017-12-16T14:57:47.020Z,4.40
2017-12-16T15:00:14.580Z,4.30
2017-12-16T15:02:42.098Z,4.30
2017-12-16T15:05:09.702Z,4.20
2017-12-16T15:07:37.677Z,4.20
2017-12-16T15:10:05.192Z,4.00
2017-12-16T15:12:32.788Z,4.00
2017-12-16T15:15:00.321Z,3.90
2017-12-16T15:17:28.420Z,3.90
2017-12-16T15:19:56.712Z,3.80
2017-12-16T15:22:24.257Z,3.70
2017-12-16T15:24:51.772Z,3.70
2017-12-16T15:27:19.372Z,3.70
2017-12-16T15:29:46.900Z,3.60
2017-12-16T15:32:14.426Z,3.50
2017-12-16T15:34:42.773Z,3.50
2017-12-16T15:37:10.328Z,3.50
2017-12-16T15:39:37.860Z,3.50
2017-12-16T15:42:05.380Z,3.50
2017-12-16T15:44:33.677Z,3.40
2017-12-16T15:47:01.290Z,3.40
2017-12-16T15:49:29.256Z,3.40
2017-12-16T15:51:56.748Z,3.30
2017-12-16T15:54:24.269Z,3.30
2017-12-16T15:56:51.784Z,3.30
2017-12-16T15:59:20.132Z,3.30
2017-12-16T16:01:47.640Z,3.20
2017-12-16T16:04:15.152Z,3.30
2017-12-16T16:06:42.688Z,3.30
2017-12-16T16:09:10.248Z,3.30
2017-12-16T16:11:37.847Z,3.30
2017-12-16T16:14:05.368Z,3.40
2017-12-16T16:16:34.057Z,3.50
2017-12-16T16:19:01.584Z,3.50
2017-12-16T16:21:29.516Z,3.50
2017-12-16T16:23:56.996Z,3.60
2017-12-16T16:26:25.332Z,3.60
2017-12-16T16:28:52.880Z,3.60
2017-12-16T16:31:20.436Z,3.60
2017-12-16T16:33:47.937Z,3.50
2017-12-16T16:36:15.553Z,3.50
2017-12-16T16:38:43.839Z,3.50
2017-12-16T16:41:11.804Z,3.60
2017-12-16T16:43:39.364Z,3.70
2017-12-16T16:46:06.925Z,3.70
2017-12-16T16:48:34.824Z,3.70
2017-12-16T16:51:03.168Z,3.70
2017-12-16T16:53:30.672Z,3.70
2017-12-16T16:55:59.011Z,3.60
2017-12-16T16:58:26.916Z,3.60
2017-12-16T17:00:55.182Z,3.50
2017-12-16T17:03:22.711Z,3.40
2017-12-16T17:05:50.221Z,3.40
2017-12-16T17:08:18.553Z,3.40
2017-12-16T17:10:46.049Z,3.40
2017-12-16T17:13:14.385Z,3.30
2017-12-16T17:15:41.945Z,3.40
2017-12-16T17:18:09.462Z,3.30
2017-12-16T17:20:37.782Z,3.30
2017-12-16T17:23:05.341Z,3.40
2017-12-16T17:25:32.853Z,3.40
2017-12-16T17:28:01.176Z,3.40
2017-12-16T17:30:28.731Z,3.40
2017-12-16T17:32:56.252Z,3.50
2017-12-16T17:35:23.796Z,3.50
2017-12-16T17:37:52.141Z,3.50
2017-12-16T17:40:19.693Z,3.50
2017-12-16T17:42:47.257Z,3.50
2017-12-16T17:45:14.813Z,3.50
2017-12-16T17:47:42.349Z,3.50
2017-12-16T17:50:09.933Z,3.40
2017-12-16T17:52:37.496Z,3.40
2017-12-16T17:55:05.053Z,3.40
2017-12-16T17:57:32.568Z,3.40
2017-12-16T18:00:00.076Z,3.40
2017-12-16T18:02:28.456Z,3.30
2017-12-16T18:04:56.440Z,3.30
2017-12-16T18:07:24.408Z,3.40
2017-12-16T18:09:52.804Z,3.40
2017-12-16T18:12:20.729Z,3.40
2017-12-16T18:14:49.005Z,3.30
2017-12-16T18:17:17.043Z,3.30
2017-12-16T18:19:45.132Z,3.40
2017-12-16T18:22:13.224Z,3.40
2017-12-16T18:24:41.608Z,3.50
2017-12-16T18:27:09.674Z,3.40
2017-12-16T18:29:37.748Z,3.30
2017-12-16T18:32:05.739Z,3.40
2017-12-16T18:34:34.748Z,3.40
2017-12-16T18:37:03.059Z,3.30
2017-12-16T18:39:31.061Z,3.30
2017-12-16T18:41:58.720Z,3.20
2017-12-16T18:44:26.260Z,3.10
2017-12-16T18:46:54.601Z,3.10
2017-12-16T18:49:22.620Z,3.10
2017-12-16T18:51:50.657Z,3.10
2017-12-16T18:54:18.364Z,3.00
2017-12-16T18:56:46.276Z,3.00
2017-12-16T18:59:14.792Z,2.90
2017-12-16T19:01:42.340Z,2.90
2017-12-16T19:04:10.656Z,2.90
2017-12-16T19:06:39.032Z,2.90
2017-12-16T19:09:07.414Z,2.90
2017-12-16T19:11:35.033Z,2.80
2017-12-16T19:14:03.352Z,2.80
2017-12-16T19:16:31.660Z,2.80
2017-12-16T19:18:59.209Z,2.80
2017-12-16T19:21:27.468Z,2.80
2017-12-16T19:23:55.852Z,2.80
2017-12-16T19:26:23.812Z,2.80
2017-12-16T19:28:52.232Z,2.90
2017-12-16T19:31:20.140Z,2.80
2017-12-16T19:33:48.529Z,2.80
2017-12-16T19:36:16.861Z,2.90
2017-12-16T19:38:45.221Z,2.80
2017-12-16T19:41:13.223Z,3.00
2017-12-16T19:43:41.237Z,2.90
2017-12-16T19:46:09.519Z,3.00
2017-12-16T19:48:37.426Z,2.90
2017-12-16T19:51:05.693Z,2.90
2017-12-16T19:53:33.628Z,3.00
2017-12-16T19:56:02.725Z,3.00
2017-12-16T19:58:30.239Z,3.10
2017-12-16T20:00:58.556Z,3.10
2017-12-16T20:03:26.453Z,3.00
2017-12-16T20:05:54.407Z,3.00
2017-12-16T20:08:21.944Z,3.00
2017-12-16T20:10:50.248Z,3.00
2017-12-16T20:13:17.789Z,3.00
2017-12-16T20:15:46.336Z,3.00
2017-12-16T20:18:15.187Z,3.00
2017-12-16T20:20:43.104Z,3.10
2017-12-16T20:23:11.457Z,3.00
2017-12-16T20:25:39.409Z,3.00
2017-12-16T20:28:08.513Z,3.00
2017-12-16T20:30:36.800Z,3.00
2017-12-16T20:33:05.161Z,3.00
2017-12-16T20:35:33.528Z,3.00
2017-12-16T20:38:01.690Z,3.00
2017-12-16T20:40:29.653Z,3.00
2017-12-16T20:42:57.156Z,3.00
2017-12-16T20:45:25.456Z,3.10
2017-12-16T20:47:53.404Z,3.10
2017-12-16T20:50:21.835Z,3.10
2017-12-16T20:52:49.496Z,3.10
2017-12-16T20:55:17.556Z,3.00
2017-12-16T20:57:45.538Z,3.10
2017-12-16T21:00:17.905Z,3.10
2017-12-16T21:02:45.792Z,3.10
2017-12-16T21:05:13.701Z,3.10
2017-12-16T21:07:41.620Z,3.10
2017-12-16T21:10:09.556Z,3.20
2017-12-16T21:12:37.852Z,3.40
2017-12-16T21:15:06.651Z,3.30
2017-12-16T21:17:34.981Z,3.30
2017-12-16T21:20:02.925Z,3.40
2017-12-16T21:22:30.536Z,3.40
2017-12-16T21:24:58.460Z,3.30
2017-12-16T21:27:26.400Z,3.30
2017-12-16T21:29:54.467Z,3.30
2017-12-16T21:32:22.736Z,3.30
2017-12-16T21:34:50.641Z,3.30
2017-12-16T21:37:19.708Z,3.30
2017-12-16T21:39:47.440Z,3.30
2017-12-16T21:42:15.405Z,3.40
2017-12-16T21:44:43.410Z,3.40
2017-12-16T21:47:12.032Z,3.40
2017-12-16T21:49:40.059Z,3.40
2017-12-16T21:52:08.413Z,3.40
2017-12-16T21:54:36.417Z,3.50
2017-12-16T21:57:03.908Z,3.50
2017-12-16T21:59:32.941Z,3.50
2017-12-16T22:02:00.561Z,3.50
2017-12-16T22:04:29.370Z,3.40
2017-12-16T22:06:57.356Z,3.40
2017-12-16T22:09:24.849Z,3.40
2017-12-16T22:11:53.500Z,3.50
2017-12-16T22:14:21.505Z,3.50
2017-12-16T22:16:49.000Z,3.50
2017-12-16T22:19:16.905Z,3.50
2017-12-16T22:21:45.306Z,3.50
2017-12-16T22:24:13.686Z,3.60
2017-12-16T22:26:41.185Z,3.50
2017-12-16T22:29:08.701Z,3.50
2017-12-16T22:31:36.264Z,3.50
2017-12-16T22:34:03.824Z,4.00
2017-12-16T22:36:31.388Z,4.00
2017-12-16T22:38:58.956Z,4.50
2017-12-16T22:41:26.501Z,4.40
2017-12-16T22:43:54.954Z,4.60
2017-12-16T22:46:22.452Z,5.00
2017-12-16T22:48:49.977Z,5.00
2017-12-16T22:51:17.567Z,5.10
2017-12-16T22:53:45.106Z,5.10
2017-12-16T22:56:12.684Z,5.00
2017-12-16T22:58:40.217Z,4.90
2017-12-16T23:01:07.800Z,4.90
2017-12-16T23:03:35.315Z,5.30
2017-12-16T23:06:03.644Z,5.10
2017-12-16T23:08:31.152Z,5.00
2017-12-16T23:10:59.417Z,4.40
2017-12-16T23:13:27.760Z,4.20
2017-12-16T23:15:55.317Z,4.10
2017-12-16T23:18:23.285Z,4.10
2017-12-16T23:20:51.350Z,4.00
2017-12-16T23:23:19.386Z,4.00
2017-12-16T23:25:47.449Z,4.00
2017-12-16T23:28:15.045Z,3.90
2017-12-16T23:30:42.540Z,3.90
2017-12-16T23:33:11.392Z,4.00
2017-12-16T23:35:39.464Z,3.90
2017-12-16T23:38:07.529Z,3.90
2017-12-16T23:40:35.928Z,3.90
2017-12-16T23:43:03.489Z,3.90
2017-12-16T23:45:31.055Z,3.80
2017-12-16T23:47:58.557Z,3.80
2017-12-16T23:50:26.848Z,3.80
2017-12-16T23:52:55.165Z,3.80
2017-12-16T23:55:22.660Z,3.80
2017-12-16T23:57:50.284Z,3.80
